Kezdőlap
METAR-TAF:

METAR-TAF

Repülőterek :

South Jersey Regional Airport

Mount Holly, New Jersey, Amerikai Egyesült Államok

földrajzi szélesség: 39-56-26N, földrajzi hosszúság: 074-50-28W, magasság: 16 m

Jelenlegi meteorológiai megfigyelések

A jelentés 1 órával és 8 perccel ezelõtt készült, 13:54 UTC
Észak-északnyugati szél 6 kt
Hőmérséklet 11°C
Páratartalom 62%
Légköri nyomás 1018 hPa
Látótávolság: 16.1 km
Borult 2500 lábon

METAR: KVAY 061354Z AUTO 34006KT 10SM OVC025 11/04 A3007 RMK AO2 SLP183 T01110044

Idő: 11:02 (15:02 UTC)


TAF: hiányzik

Meteorológiai megfigyelések és előrejelzések több, mint 4000 repülőtéren (METAR és TAF jelentéseket).

A térképen piros és sárga pontok jelzik az elérhető meteorológiai állomásokat.

Mozgassa az egeret a pont fölött, hogy megjelenjen az állomás neve.

Azután kattintson az időjárási megfigyelések és előrejelzések megtekintéséhez.

A térkép megváltoztatása: kattintson a fekete keresztel jelölt zöld gombra ráközelítéshez, a vonallal jelölt zöld gombra távolításhoz, vagy a zöld nyilakra a szomszédos térképek eléréséhez.


METAR-TAF: